sensor_id;sensor_type;location;lat;lon;timestamp;P1;durP1;ratioP1;P2;durP2;ratioP2
6821;SDS011;3449;48.728;8.968;2023-05-27T00:01:45;5.57;;;3.33;;
6821;SDS011;3449;48.728;8.968;2023-05-27T00:04:12;8.30;;;3.20;;
6821;SDS011;3449;48.728;8.968;2023-05-27T00:06:40;13.83;;;4.20;;
6821;SDS011;3449;48.728;8.968;2023-05-27T00:09:07;10.27;;;2.83;;
6821;SDS011;3449;48.728;8.968;2023-05-27T00:11:35;6.33;;;3.30;;
6821;SDS011;3449;48.728;8.968;2023-05-27T00:14:02;13.00;;;3.60;;
6821;SDS011;3449;48.728;8.968;2023-05-27T00:16:29;7.40;;;3.20;;
6821;SDS011;3449;48.728;8.968;2023-05-27T00:18:56;11.20;;;3.37;;
6821;SDS011;3449;48.728;8.968;2023-05-27T00:21:24;9.73;;;4.23;;
6821;SDS011;3449;48.728;8.968;2023-05-27T00:23:52;6.43;;;3.30;;
6821;SDS011;3449;48.728;8.968;2023-05-27T00:26:19;6.40;;;3.13;;
6821;SDS011;3449;48.728;8.968;2023-05-27T00:28:46;5.00;;;2.60;;
6821;SDS011;3449;48.728;8.968;2023-05-27T00:31:13;11.53;;;3.40;;
6821;SDS011;3449;48.728;8.968;2023-05-27T00:33:40;8.73;;;3.60;;
6821;SDS011;3449;48.728;8.968;2023-05-27T00:36:08;12.17;;;2.93;;
6821;SDS011;3449;48.728;8.968;2023-05-27T00:38:35;8.60;;;2.63;;
6821;SDS011;3449;48.728;8.968;2023-05-27T00:41:04;7.63;;;2.87;;
6821;SDS011;3449;48.728;8.968;2023-05-27T00:43:31;8.07;;;2.60;;
6821;SDS011;3449;48.728;8.968;2023-05-27T00:45:58;6.80;;;3.30;;
6821;SDS011;3449;48.728;8.968;2023-05-27T00:48:25;6.97;;;3.10;;
6821;SDS011;3449;48.728;8.968;2023-05-27T00:50:52;3.50;;;2.73;;
6821;SDS011;3449;48.728;8.968;2023-05-27T00:53:19;11.70;;;3.90;;
6821;SDS011;3449;48.728;8.968;2023-05-27T00:55:46;14.83;;;2.73;;
6821;SDS011;3449;48.728;8.968;2023-05-27T00:58:15;3.60;;;2.50;;
6821;SDS011;3449;48.728;8.968;2023-05-27T01:00:43;5.53;;;3.33;;
6821;SDS011;3449;48.728;8.968;2023-05-27T01:03:10;8.27;;;3.63;;
6821;SDS011;3449;48.728;8.968;2023-05-27T01:05:37;7.77;;;3.23;;
6821;SDS011;3449;48.728;8.968;2023-05-27T01:08:08;7.53;;;2.60;;
6821;SDS011;3449;48.728;8.968;2023-05-27T01:10:44;12.13;;;3.77;;
6821;SDS011;3449;48.728;8.968;2023-05-27T01:13:18;13.23;;;3.10;;
6821;SDS011;3449;48.728;8.968;2023-05-27T01:15:53;5.87;;;2.80;;
6821;SDS011;3449;48.728;8.968;2023-05-27T01:18:23;6.70;;;2.70;;
6821;SDS011;3449;48.728;8.968;2023-05-27T01:20:55;9.20;;;3.43;;
6821;SDS011;3449;48.728;8.968;2023-05-27T01:23:30;5.73;;;2.80;;
6821;SDS011;3449;48.728;8.968;2023-05-27T01:25:58;10.43;;;3.23;;
6821;SDS011;3449;48.728;8.968;2023-05-27T01:28:25;6.83;;;3.00;;
6821;SDS011;3449;48.728;8.968;2023-05-27T01:30:53;10.30;;;3.03;;
6821;SDS011;3449;48.728;8.968;2023-05-27T01:33:24;5.30;;;3.03;;
6821;SDS011;3449;48.728;8.968;2023-05-27T01:35:57;7.63;;;3.30;;
6821;SDS011;3449;48.728;8.968;2023-05-27T01:38:28;7.90;;;3.73;;
6821;SDS011;3449;48.728;8.968;2023-05-27T01:40:57;7.87;;;3.57;;
6821;SDS011;3449;48.728;8.968;2023-05-27T01:43:26;23.23;;;3.93;;
6821;SDS011;3449;48.728;8.968;2023-05-27T01:45:53;13.20;;;3.17;;
6821;SDS011;3449;48.728;8.968;2023-05-27T01:48:20;15.80;;;2.43;;
6821;SDS011;3449;48.728;8.968;2023-05-27T01:50:47;11.43;;;2.87;;
6821;SDS011;3449;48.728;8.968;2023-05-27T01:53:14;8.10;;;3.53;;
6821;SDS011;3449;48.728;8.968;2023-05-27T01:55:42;11.20;;;3.77;;
6821;SDS011;3449;48.728;8.968;2023-05-27T01:58:09;8.87;;;3.90;;
6821;SDS011;3449;48.728;8.968;2023-05-27T02:00:36;7.13;;;2.80;;
6821;SDS011;3449;48.728;8.968;2023-05-27T02:03:03;11.13;;;3.50;;
6821;SDS011;3449;48.728;8.968;2023-05-27T02:05:29;16.40;;;3.37;;
6821;SDS011;3449;48.728;8.968;2023-05-27T02:07:56;14.43;;;3.03;;
6821;SDS011;3449;48.728;8.968;2023-05-27T02:10:23;10.30;;;3.03;;
6821;SDS011;3449;48.728;8.968;2023-05-27T02:12:51;4.53;;;2.60;;
6821;SDS011;3449;48.728;8.968;2023-05-27T02:15:18;7.83;;;3.30;;
6821;SDS011;3449;48.728;8.968;2023-05-27T02:17:48;19.03;;;2.90;;
6821;SDS011;3449;48.728;8.968;2023-05-27T02:20:20;7.20;;;2.90;;
6821;SDS011;3449;48.728;8.968;2023-05-27T02:22:47;11.17;;;2.97;;
6821;SDS011;3449;48.728;8.968;2023-05-27T02:25:15;11.07;;;3.20;;
6821;SDS011;3449;48.728;8.968;2023-05-27T02:27:42;12.20;;;2.90;;
6821;SDS011;3449;48.728;8.968;2023-05-27T02:30:15;24.73;;;3.37;;
6821;SDS011;3449;48.728;8.968;2023-05-27T02:32:42;11.20;;;3.00;;
6821;SDS011;3449;48.728;8.968;2023-05-27T02:35:10;9.93;;;3.07;;
6821;SDS011;3449;48.728;8.968;2023-05-27T02:37:38;12.13;;;3.30;;
6821;SDS011;3449;48.728;8.968;2023-05-27T02:40:06;9.77;;;3.17;;
6821;SDS011;3449;48.728;8.968;2023-05-27T02:42:34;16.80;;;3.30;;
6821;SDS011;3449;48.728;8.968;2023-05-27T02:45:01;16.60;;;3.30;;
6821;SDS011;3449;48.728;8.968;2023-05-27T02:47:29;7.67;;;3.23;;
6821;SDS011;3449;48.728;8.968;2023-05-27T02:49:56;7.10;;;3.33;;
6821;SDS011;3449;48.728;8.968;2023-05-27T02:52:23;9.33;;;3.50;;
6821;SDS011;3449;48.728;8.968;2023-05-27T02:54:50;11.30;;;3.30;;
6821;SDS011;3449;48.728;8.968;2023-05-27T02:57:17;12.83;;;3.50;;
6821;SDS011;3449;48.728;8.968;2023-05-27T02:59:45;11.57;;;3.30;;
6821;SDS011;3449;48.728;8.968;2023-05-27T03:02:11;12.80;;;3.57;;
6821;SDS011;3449;48.728;8.968;2023-05-27T03:04:40;9.20;;;3.43;;
6821;SDS011;3449;48.728;8.968;2023-05-27T03:07:06;6.70;;;2.53;;
6821;SDS011;3449;48.728;8.968;2023-05-27T03:09:33;14.07;;;3.90;;
6821;SDS011;3449;48.728;8.968;2023-05-27T03:12:00;7.63;;;3.60;;
6821;SDS011;3449;48.728;8.968;2023-05-27T03:14:27;7.43;;;3.20;;
6821;SDS011;3449;48.728;8.968;2023-05-27T03:16:54;7.37;;;3.00;;
6821;SDS011;3449;48.728;8.968;2023-05-27T03:19:21;9.70;;;3.27;;
6821;SDS011;3449;48.728;8.968;2023-05-27T03:21:49;7.80;;;3.20;;
6821;SDS011;3449;48.728;8.968;2023-05-27T03:24:17;16.67;;;4.10;;
6821;SDS011;3449;48.728;8.968;2023-05-27T03:26:43;10.13;;;3.87;;
6821;SDS011;3449;48.728;8.968;2023-05-27T03:29:10;14.80;;;4.37;;
6821;SDS011;3449;48.728;8.968;2023-05-27T03:31:37;6.57;;;3.50;;
6821;SDS011;3449;48.728;8.968;2023-05-27T03:34:04;7.70;;;3.20;;
6821;SDS011;3449;48.728;8.968;2023-05-27T03:36:31;12.50;;;4.90;;
6821;SDS011;3449;48.728;8.968;2023-05-27T03:39:01;11.40;;;3.10;;
6821;SDS011;3449;48.728;8.968;2023-05-27T03:41:29;10.30;;;3.77;;
6821;SDS011;3449;48.728;8.968;2023-05-27T03:43:56;13.67;;;3.97;;
6821;SDS011;3449;48.728;8.968;2023-05-27T03:46:23;11.20;;;3.50;;
6821;SDS011;3449;48.728;8.968;2023-05-27T03:48:50;17.53;;;4.10;;
6821;SDS011;3449;48.728;8.968;2023-05-27T03:51:16;12.70;;;4.40;;
6821;SDS011;3449;48.728;8.968;2023-05-27T03:53:43;7.10;;;3.23;;
6821;SDS011;3449;48.728;8.968;2023-05-27T03:56:11;9.73;;;3.73;;
6821;SDS011;3449;48.728;8.968;2023-05-27T03:58:38;12.70;;;3.90;;
6821;SDS011;3449;48.728;8.968;2023-05-27T04:01:05;9.90;;;4.03;;
6821;SDS011;3449;48.728;8.968;2023-05-27T04:03:33;10.03;;;4.63;;
6821;SDS011;3449;48.728;8.968;2023-05-27T04:06:00;15.87;;;4.27;;
6821;SDS011;3449;48.728;8.968;2023-05-27T04:08:27;13.50;;;3.90;;
6821;SDS011;3449;48.728;8.968;2023-05-27T04:10:54;9.83;;;3.50;;
6821;SDS011;3449;48.728;8.968;2023-05-27T04:13:23;8.90;;;3.97;;
6821;SDS011;3449;48.728;8.968;2023-05-27T04:15:49;15.27;;;3.90;;
6821;SDS011;3449;48.728;8.968;2023-05-27T04:18:16;12.83;;;3.40;;
6821;SDS011;3449;48.728;8.968;2023-05-27T04:20:43;11.70;;;3.23;;
6821;SDS011;3449;48.728;8.968;2023-05-27T04:23:12;7.27;;;3.37;;
6821;SDS011;3449;48.728;8.968;2023-05-27T04:25:39;9.97;;;3.60;;
6821;SDS011;3449;48.728;8.968;2023-05-27T04:28:09;11.60;;;3.40;;
6821;SDS011;3449;48.728;8.968;2023-05-27T04:30:37;12.63;;;4.20;;
6821;SDS011;3449;48.728;8.968;2023-05-27T04:33:05;13.03;;;3.87;;
6821;SDS011;3449;48.728;8.968;2023-05-27T04:35:33;14.87;;;3.97;;
6821;SDS011;3449;48.728;8.968;2023-05-27T04:38:00;9.60;;;3.60;;
6821;SDS011;3449;48.728;8.968;2023-05-27T04:40:27;14.60;;;4.00;;
6821;SDS011;3449;48.728;8.968;2023-05-27T04:42:54;13.40;;;4.23;;
6821;SDS011;3449;48.728;8.968;2023-05-27T04:45:21;12.20;;;4.10;;
6821;SDS011;3449;48.728;8.968;2023-05-27T04:47:50;15.30;;;4.07;;
6821;SDS011;3449;48.728;8.968;2023-05-27T04:50:17;10.80;;;3.23;;
6821;SDS011;3449;48.728;8.968;2023-05-27T04:52:44;12.90;;;4.07;;
6821;SDS011;3449;48.728;8.968;2023-05-27T04:55:10;18.13;;;4.90;;
6821;SDS011;3449;48.728;8.968;2023-05-27T04:57:37;5.70;;;3.30;;
6821;SDS011;3449;48.728;8.968;2023-05-27T05:00:06;14.60;;;4.10;;
6821;SDS011;3449;48.728;8.968;2023-05-27T05:03:00;17.00;;;4.73;;
6821;SDS011;3449;48.728;8.968;2023-05-27T05:05:27;15.67;;;4.20;;
6821;SDS011;3449;48.728;8.968;2023-05-27T05:07:54;9.20;;;3.93;;
6821;SDS011;3449;48.728;8.968;2023-05-27T05:10:21;12.50;;;3.80;;
6821;SDS011;3449;48.728;8.968;2023-05-27T05:12:48;9.03;;;3.80;;
6821;SDS011;3449;48.728;8.968;2023-05-27T05:15:15;11.93;;;3.73;;
6821;SDS011;3449;48.728;8.968;2023-05-27T05:17:42;11.90;;;3.67;;
6821;SDS011;3449;48.728;8.968;2023-05-27T05:20:11;16.43;;;3.03;;
6821;SDS011;3449;48.728;8.968;2023-05-27T05:22:38;9.80;;;3.77;;
6821;SDS011;3449;48.728;8.968;2023-05-27T05:25:05;8.87;;;3.90;;
6821;SDS011;3449;48.728;8.968;2023-05-27T05:27:33;15.40;;;3.87;;
6821;SDS011;3449;48.728;8.968;2023-05-27T05:30:01;8.63;;;3.83;;
6821;SDS011;3449;48.728;8.968;2023-05-27T05:32:29;12.37;;;3.70;;
6821;SDS011;3449;48.728;8.968;2023-05-27T05:34:56;14.57;;;4.77;;
6821;SDS011;3449;48.728;8.968;2023-05-27T05:37:24;16.83;;;4.63;;
6821;SDS011;3449;48.728;8.968;2023-05-27T05:39:53;11.90;;;3.17;;
6821;SDS011;3449;48.728;8.968;2023-05-27T05:42:20;12.80;;;3.50;;
6821;SDS011;3449;48.728;8.968;2023-05-27T05:44:48;14.13;;;4.27;;
6821;SDS011;3449;48.728;8.968;2023-05-27T05:47:15;14.07;;;3.67;;
6821;SDS011;3449;48.728;8.968;2023-05-27T05:49:42;11.77;;;3.93;;
6821;SDS011;3449;48.728;8.968;2023-05-27T05:52:09;16.63;;;4.67;;
6821;SDS011;3449;48.728;8.968;2023-05-27T05:54:37;9.60;;;3.57;;
6821;SDS011;3449;48.728;8.968;2023-05-27T05:57:04;6.10;;;3.10;;
6821;SDS011;3449;48.728;8.968;2023-05-27T05:59:31;12.37;;;4.20;;
6821;SDS011;3449;48.728;8.968;2023-05-27T06:01:58;10.83;;;3.50;;
6821;SDS011;3449;48.728;8.968;2023-05-27T06:04:25;10.83;;;3.50;;
6821;SDS011;3449;48.728;8.968;2023-05-27T06:06:52;16.30;;;3.77;;
6821;SDS011;3449;48.728;8.968;2023-05-27T06:09:19;10.33;;;3.60;;
6821;SDS011;3449;48.728;8.968;2023-05-27T06:11:47;11.03;;;3.90;;
6821;SDS011;3449;48.728;8.968;2023-05-27T06:14:14;11.20;;;2.73;;
6821;SDS011;3449;48.728;8.968;2023-05-27T06:16:41;15.73;;;3.63;;
6821;SDS011;3449;48.728;8.968;2023-05-27T06:19:08;7.63;;;4.17;;
6821;SDS011;3449;48.728;8.968;2023-05-27T06:21:35;11.00;;;3.40;;
6821;SDS011;3449;48.728;8.968;2023-05-27T06:24:02;8.50;;;4.03;;
6821;SDS011;3449;48.728;8.968;2023-05-27T06:26:29;9.80;;;3.57;;
6821;SDS011;3449;48.728;8.968;2023-05-27T06:28:58;10.10;;;3.83;;
6821;SDS011;3449;48.728;8.968;2023-05-27T06:31:24;8.93;;;3.73;;
6821;SDS011;3449;48.728;8.968;2023-05-27T06:33:52;9.67;;;2.80;;
6821;SDS011;3449;48.728;8.968;2023-05-27T06:36:21;11.77;;;3.87;;
6821;SDS011;3449;48.728;8.968;2023-05-27T06:38:48;7.47;;;3.67;;
6821;SDS011;3449;48.728;8.968;2023-05-27T06:41:14;11.80;;;4.23;;
6821;SDS011;3449;48.728;8.968;2023-05-27T06:43:41;14.03;;;3.20;;
6821;SDS011;3449;48.728;8.968;2023-05-27T06:46:10;10.77;;;3.60;;
6821;SDS011;3449;48.728;8.968;2023-05-27T06:48:36;19.63;;;4.87;;
6821;SDS011;3449;48.728;8.968;2023-05-27T06:51:04;11.93;;;3.43;;
6821;SDS011;3449;48.728;8.968;2023-05-27T06:53:32;14.80;;;3.80;;
6821;SDS011;3449;48.728;8.968;2023-05-27T06:55:59;11.33;;;3.60;;
6821;SDS011;3449;48.728;8.968;2023-05-27T06:58:26;16.03;;;3.73;;
6821;SDS011;3449;48.728;8.968;2023-05-27T07:00:53;18.70;;;4.00;;
6821;SDS011;3449;48.728;8.968;2023-05-27T07:03:21;8.83;;;3.60;;
6821;SDS011;3449;48.728;8.968;2023-05-27T07:05:48;8.60;;;3.10;;
6821;SDS011;3449;48.728;8.968;2023-05-27T07:08:15;14.40;;;3.73;;
6821;SDS011;3449;48.728;8.968;2023-05-27T07:10:42;11.43;;;3.30;;
6821;SDS011;3449;48.728;8.968;2023-05-27T07:13:09;5.97;;;3.50;;
6821;SDS011;3449;48.728;8.968;2023-05-27T07:15:36;9.93;;;3.27;;
6821;SDS011;3449;48.728;8.968;2023-05-27T07:18:03;12.97;;;3.53;;
6821;SDS011;3449;48.728;8.968;2023-05-27T07:20:33;14.30;;;4.03;;
6821;SDS011;3449;48.728;8.968;2023-05-27T07:23:00;14.70;;;3.50;;
6821;SDS011;3449;48.728;8.968;2023-05-27T07:25:27;14.27;;;3.80;;
6821;SDS011;3449;48.728;8.968;2023-05-27T07:27:54;11.67;;;4.00;;
6821;SDS011;3449;48.728;8.968;2023-05-27T07:30:21;10.77;;;3.83;;
6821;SDS011;3449;48.728;8.968;2023-05-27T07:32:47;12.93;;;3.70;;
6821;SDS011;3449;48.728;8.968;2023-05-27T07:35:15;14.53;;;3.17;;
6821;SDS011;3449;48.728;8.968;2023-05-27T07:37:43;11.00;;;3.57;;
6821;SDS011;3449;48.728;8.968;2023-05-27T07:40:10;6.10;;;3.20;;
6821;SDS011;3449;48.728;8.968;2023-05-27T07:42:37;10.13;;;3.43;;
6821;SDS011;3449;48.728;8.968;2023-05-27T07:45:04;10.07;;;3.50;;
6821;SDS011;3449;48.728;8.968;2023-05-27T07:47:32;13.33;;;3.67;;
6821;SDS011;3449;48.728;8.968;2023-05-27T07:49:59;9.70;;;3.30;;
6821;SDS011;3449;48.728;8.968;2023-05-27T07:52:25;8.87;;;2.87;;
6821;SDS011;3449;48.728;8.968;2023-05-27T07:54:54;12.13;;;4.03;;
6821;SDS011;3449;48.728;8.968;2023-05-27T07:57:22;9.93;;;3.40;;
6821;SDS011;3449;48.728;8.968;2023-05-27T07:59:49;6.17;;;3.40;;
6821;SDS011;3449;48.728;8.968;2023-05-27T08:02:16;8.37;;;3.30;;
6821;SDS011;3449;48.728;8.968;2023-05-27T08:04:43;8.43;;;4.07;;
6821;SDS011;3449;48.728;8.968;2023-05-27T08:07:10;30.40;;;5.03;;
6821;SDS011;3449;48.728;8.968;2023-05-27T08:09:37;8.73;;;3.67;;
6821;SDS011;3449;48.728;8.968;2023-05-27T08:12:05;13.50;;;3.87;;
6821;SDS011;3449;48.728;8.968;2023-05-27T08:14:32;12.93;;;3.70;;
6821;SDS011;3449;48.728;8.968;2023-05-27T08:16:59;11.23;;;3.83;;
6821;SDS011;3449;48.728;8.968;2023-05-27T08:19:26;10.63;;;3.80;;
6821;SDS011;3449;48.728;8.968;2023-05-27T08:21:53;9.80;;;4.20;;
6821;SDS011;3449;48.728;8.968;2023-05-27T08:24:21;12.90;;;4.47;;
6821;SDS011;3449;48.728;8.968;2023-05-27T08:26:48;9.80;;;3.93;;
6821;SDS011;3449;48.728;8.968;2023-05-27T08:29:17;13.27;;;3.70;;
6821;SDS011;3449;48.728;8.968;2023-05-27T08:31:44;8.93;;;3.10;;
6821;SDS011;3449;48.728;8.968;2023-05-27T08:34:11;13.27;;;3.97;;
6821;SDS011;3449;48.728;8.968;2023-05-27T08:36:38;5.93;;;3.43;;
6821;SDS011;3449;48.728;8.968;2023-05-27T08:39:05;19.93;;;3.73;;
6821;SDS011;3449;48.728;8.968;2023-05-27T08:41:32;9.27;;;4.03;;
6821;SDS011;3449;48.728;8.968;2023-05-27T08:44:00;9.93;;;4.00;;
6821;SDS011;3449;48.728;8.968;2023-05-27T08:46:29;7.70;;;3.63;;
6821;SDS011;3449;48.728;8.968;2023-05-27T08:48:56;17.83;;;3.60;;
6821;SDS011;3449;48.728;8.968;2023-05-27T08:51:25;8.87;;;3.20;;
6821;SDS011;3449;48.728;8.968;2023-05-27T08:53:52;9.50;;;3.83;;
6821;SDS011;3449;48.728;8.968;2023-05-27T08:56:19;11.73;;;3.63;;
6821;SDS011;3449;48.728;8.968;2023-05-27T08:58:47;10.50;;;4.33;;
6821;SDS011;3449;48.728;8.968;2023-05-27T09:01:15;12.17;;;4.20;;
6821;SDS011;3449;48.728;8.968;2023-05-27T09:03:44;13.13;;;3.53;;
6821;SDS011;3449;48.728;8.968;2023-05-27T09:06:11;8.10;;;4.20;;
6821;SDS011;3449;48.728;8.968;2023-05-27T09:08:38;8.80;;;4.10;;
6821;SDS011;3449;48.728;8.968;2023-05-27T09:11:04;13.97;;;4.00;;
6821;SDS011;3449;48.728;8.968;2023-05-27T09:13:33;11.20;;;4.10;;
6821;SDS011;3449;48.728;8.968;2023-05-27T09:16:00;10.27;;;4.50;;
6821;SDS011;3449;48.728;8.968;2023-05-27T09:18:29;9.23;;;4.13;;
6821;SDS011;3449;48.728;8.968;2023-05-27T09:20:59;12.80;;;4.30;;
6821;SDS011;3449;48.728;8.968;2023-05-27T09:23:26;11.10;;;4.00;;
6821;SDS011;3449;48.728;8.968;2023-05-27T09:25:53;5.90;;;3.90;;
6821;SDS011;3449;48.728;8.968;2023-05-27T09:28:21;13.50;;;4.73;;
6821;SDS011;3449;48.728;8.968;2023-05-27T09:30:51;13.00;;;4.50;;
6821;SDS011;3449;48.728;8.968;2023-05-27T09:33:25;8.20;;;3.60;;
6821;SDS011;3449;48.728;8.968;2023-05-27T09:35:53;11.90;;;4.80;;
6821;SDS011;3449;48.728;8.968;2023-05-27T09:38:22;5.47;;;3.43;;
6821;SDS011;3449;48.728;8.968;2023-05-27T09:40:48;6.40;;;4.13;;
6821;SDS011;3449;48.728;8.968;2023-05-27T09:43:15;12.70;;;4.10;;
6821;SDS011;3449;48.728;8.968;2023-05-27T09:45:42;12.87;;;4.10;;
6821;SDS011;3449;48.728;8.968;2023-05-27T09:48:11;16.80;;;4.60;;
6821;SDS011;3449;48.728;8.968;2023-05-27T09:50:39;9.87;;;4.60;;
6821;SDS011;3449;48.728;8.968;2023-05-27T09:53:07;8.60;;;3.93;;
6821;SDS011;3449;48.728;8.968;2023-05-27T09:55:36;10.17;;;4.30;;
6821;SDS011;3449;48.728;8.968;2023-05-27T09:58:02;7.43;;;4.33;;
6821;SDS011;3449;48.728;8.968;2023-05-27T10:00:29;12.73;;;4.40;;
6821;SDS011;3449;48.728;8.968;2023-05-27T10:02:59;8.53;;;4.30;;
6821;SDS011;3449;48.728;8.968;2023-05-27T10:05:28;12.57;;;4.97;;
6821;SDS011;3449;48.728;8.968;2023-05-27T10:07:55;9.80;;;4.40;;
6821;SDS011;3449;48.728;8.968;2023-05-27T10:10:22;7.30;;;4.40;;
6821;SDS011;3449;48.728;8.968;2023-05-27T10:12:51;9.03;;;3.90;;
6821;SDS011;3449;48.728;8.968;2023-05-27T10:15:21;15.30;;;5.53;;
6821;SDS011;3449;48.728;8.968;2023-05-27T10:17:51;12.90;;;4.90;;
6821;SDS011;3449;48.728;8.968;2023-05-27T10:20:26;5.47;;;3.87;;
6821;SDS011;3449;48.728;8.968;2023-05-27T10:22:54;12.00;;;5.00;;
6821;SDS011;3449;48.728;8.968;2023-05-27T10:25:21;13.20;;;4.40;;
6821;SDS011;3449;48.728;8.968;2023-05-27T10:27:50;12.50;;;4.63;;
6821;SDS011;3449;48.728;8.968;2023-05-27T10:30:17;12.30;;;5.70;;
6821;SDS011;3449;48.728;8.968;2023-05-27T10:32:44;12.80;;;4.20;;
6821;SDS011;3449;48.728;8.968;2023-05-27T10:35:15;9.73;;;3.90;;
6821;SDS011;3449;48.728;8.968;2023-05-27T10:37:42;8.43;;;4.40;;
6821;SDS011;3449;48.728;8.968;2023-05-27T10:40:09;13.50;;;5.30;;
6821;SDS011;3449;48.728;8.968;2023-05-27T10:42:37;8.73;;;3.57;;
6821;SDS011;3449;48.728;8.968;2023-05-27T10:45:06;7.93;;;4.10;;
6821;SDS011;3449;48.728;8.968;2023-05-27T10:47:36;7.70;;;3.80;;
6821;SDS011;3449;48.728;8.968;2023-05-27T10:50:09;8.80;;;4.50;;
6821;SDS011;3449;48.728;8.968;2023-05-27T10:52:38;8.03;;;4.27;;
6821;SDS011;3449;48.728;8.968;2023-05-27T10:55:06;7.30;;;4.00;;
6821;SDS011;3449;48.728;8.968;2023-05-27T10:57:33;5.83;;;3.93;;
6821;SDS011;3449;48.728;8.968;2023-05-27T11:00:01;13.43;;;4.77;;
6821;SDS011;3449;48.728;8.968;2023-05-27T11:02:35;7.47;;;3.93;;
6821;SDS011;3449;48.728;8.968;2023-05-27T11:05:10;9.47;;;4.20;;
6821;SDS011;3449;48.728;8.968;2023-05-27T11:07:40;8.03;;;4.67;;
6821;SDS011;3449;48.728;8.968;2023-05-27T11:10:08;12.23;;;4.10;;
6821;SDS011;3449;48.728;8.968;2023-05-27T11:12:35;6.60;;;4.00;;
6821;SDS011;3449;48.728;8.968;2023-05-27T11:15:02;11.57;;;4.00;;
6821;SDS011;3449;48.728;8.968;2023-05-27T11:17:30;6.60;;;3.73;;
6821;SDS011;3449;48.728;8.968;2023-05-27T11:19:58;10.33;;;4.23;;
6821;SDS011;3449;48.728;8.968;2023-05-27T11:22:25;7.47;;;3.90;;
6821;SDS011;3449;48.728;8.968;2023-05-27T11:24:55;7.83;;;3.87;;
6821;SDS011;3449;48.728;8.968;2023-05-27T11:27:23;11.83;;;4.83;;
6821;SDS011;3449;48.728;8.968;2023-05-27T11:29:51;10.40;;;4.60;;
6821;SDS011;3449;48.728;8.968;2023-05-27T11:32:19;6.97;;;4.03;;
6821;SDS011;3449;48.728;8.968;2023-05-27T11:34:46;5.27;;;3.97;;
6821;SDS011;3449;48.728;8.968;2023-05-27T11:37:15;8.00;;;4.53;;
6821;SDS011;3449;48.728;8.968;2023-05-27T11:39:49;11.30;;;4.77;;
6821;SDS011;3449;48.728;8.968;2023-05-27T11:42:19;8.90;;;4.17;;
6821;SDS011;3449;48.728;8.968;2023-05-27T11:44:49;4.03;;;3.37;;
6821;SDS011;3449;48.728;8.968;2023-05-27T11:47:16;7.03;;;4.60;;
6821;SDS011;3449;48.728;8.968;2023-05-27T11:49:43;8.67;;;4.43;;
6821;SDS011;3449;48.728;8.968;2023-05-27T11:52:11;7.47;;;4.37;;
6821;SDS011;3449;48.728;8.968;2023-05-27T11:54:40;12.23;;;5.10;;
6821;SDS011;3449;48.728;8.968;2023-05-27T11:57:06;10.80;;;4.30;;
6821;SDS011;3449;48.728;8.968;2023-05-27T11:59:35;18.03;;;3.90;;
6821;SDS011;3449;48.728;8.968;2023-05-27T12:02:03;10.00;;;4.73;;
6821;SDS011;3449;48.728;8.968;2023-05-27T12:04:30;8.33;;;5.00;;
6821;SDS011;3449;48.728;8.968;2023-05-27T12:06:57;6.27;;;3.80;;
6821;SDS011;3449;48.728;8.968;2023-05-27T12:09:25;14.03;;;5.57;;
6821;SDS011;3449;48.728;8.968;2023-05-27T12:11:54;15.50;;;4.37;;
6821;SDS011;3449;48.728;8.968;2023-05-27T12:14:20;4.83;;;3.90;;
6821;SDS011;3449;48.728;8.968;2023-05-27T12:16:47;6.00;;;4.20;;
6821;SDS011;3449;48.728;8.968;2023-05-27T12:19:14;8.63;;;5.50;;
6821;SDS011;3449;48.728;8.968;2023-05-27T12:21:41;11.60;;;5.60;;
6821;SDS011;3449;48.728;8.968;2023-05-27T12:24:08;8.47;;;4.70;;
6821;SDS011;3449;48.728;8.968;2023-05-27T12:26:35;8.03;;;4.30;;
6821;SDS011;3449;48.728;8.968;2023-05-27T12:29:07;9.83;;;4.37;;
6821;SDS011;3449;48.728;8.968;2023-05-27T12:31:34;10.10;;;4.57;;
6821;SDS011;3449;48.728;8.968;2023-05-27T12:34:00;9.53;;;3.90;;
6821;SDS011;3449;48.728;8.968;2023-05-27T12:36:27;8.87;;;5.00;;
6821;SDS011;3449;48.728;8.968;2023-05-27T12:38:54;6.07;;;3.53;;
6821;SDS011;3449;48.728;8.968;2023-05-27T12:41:21;12.17;;;5.03;;
6821;SDS011;3449;48.728;8.968;2023-05-27T12:43:48;11.73;;;4.37;;
6821;SDS011;3449;48.728;8.968;2023-05-27T12:46:16;9.80;;;5.10;;
6821;SDS011;3449;48.728;8.968;2023-05-27T12:48:43;9.87;;;4.60;;
6821;SDS011;3449;48.728;8.968;2023-05-27T12:51:10;8.90;;;4.90;;
6821;SDS011;3449;48.728;8.968;2023-05-27T12:53:37;12.37;;;5.67;;
6821;SDS011;3449;48.728;8.968;2023-05-27T12:56:04;7.40;;;4.87;;
6821;SDS011;3449;48.728;8.968;2023-05-27T12:58:31;9.53;;;4.80;;
6821;SDS011;3449;48.728;8.968;2023-05-27T13:00:58;8.23;;;4.50;;
6821;SDS011;3449;48.728;8.968;2023-05-27T13:03:26;8.67;;;4.80;;
6821;SDS011;3449;48.728;8.968;2023-05-27T13:05:53;7.60;;;5.00;;
6821;SDS011;3449;48.728;8.968;2023-05-27T13:08:20;9.93;;;5.17;;
6821;SDS011;3449;48.728;8.968;2023-05-27T13:10:48;10.10;;;5.40;;
6821;SDS011;3449;48.728;8.968;2023-05-27T13:13:15;12.37;;;4.87;;
6821;SDS011;3449;48.728;8.968;2023-05-27T13:15:42;8.53;;;5.30;;
6821;SDS011;3449;48.728;8.968;2023-05-27T13:18:09;9.73;;;5.67;;
6821;SDS011;3449;48.728;8.968;2023-05-27T13:20:37;10.37;;;5.30;;
6821;SDS011;3449;48.728;8.968;2023-05-27T13:23:04;5.43;;;4.17;;
6821;SDS011;3449;48.728;8.968;2023-05-27T13:25:31;8.90;;;4.37;;
6821;SDS011;3449;48.728;8.968;2023-05-27T13:27:58;9.80;;;5.10;;
6821;SDS011;3449;48.728;8.968;2023-05-27T13:30:25;10.87;;;5.67;;
6821;SDS011;3449;48.728;8.968;2023-05-27T13:32:52;7.00;;;4.37;;
6821;SDS011;3449;48.728;8.968;2023-05-27T13:35:20;10.47;;;3.80;;
6821;SDS011;3449;48.728;8.968;2023-05-27T13:37:48;8.20;;;3.90;;
6821;SDS011;3449;48.728;8.968;2023-05-27T13:40:15;10.93;;;5.00;;
6821;SDS011;3449;48.728;8.968;2023-05-27T13:42:43;10.67;;;4.77;;
6821;SDS011;3449;48.728;8.968;2023-05-27T13:45:10;7.13;;;3.93;;
6821;SDS011;3449;48.728;8.968;2023-05-27T13:47:37;17.10;;;5.60;;
6821;SDS011;3449;48.728;8.968;2023-05-27T13:50:07;6.57;;;3.80;;
6821;SDS011;3449;48.728;8.968;2023-05-27T13:52:35;8.77;;;4.30;;
6821;SDS011;3449;48.728;8.968;2023-05-27T13:55:03;9.60;;;4.40;;
6821;SDS011;3449;48.728;8.968;2023-05-27T13:57:31;12.60;;;4.50;;
6821;SDS011;3449;48.728;8.968;2023-05-27T13:59:57;7.93;;;4.10;;
6821;SDS011;3449;48.728;8.968;2023-05-27T14:02:24;13.17;;;4.30;;
6821;SDS011;3449;48.728;8.968;2023-05-27T14:04:51;10.63;;;4.70;;
6821;SDS011;3449;48.728;8.968;2023-05-27T14:07:18;14.20;;;3.80;;
6821;SDS011;3449;48.728;8.968;2023-05-27T14:09:45;8.80;;;4.47;;
6821;SDS011;3449;48.728;8.968;2023-05-27T14:12:14;8.53;;;4.37;;
6821;SDS011;3449;48.728;8.968;2023-05-27T14:14:40;4.90;;;3.30;;
6821;SDS011;3449;48.728;8.968;2023-05-27T14:17:07;9.63;;;3.80;;
6821;SDS011;3449;48.728;8.968;2023-05-27T14:19:34;9.13;;;4.27;;
6821;SDS011;3449;48.728;8.968;2023-05-27T14:22:01;11.60;;;3.90;;
6821;SDS011;3449;48.728;8.968;2023-05-27T14:24:28;9.43;;;3.87;;
6821;SDS011;3449;48.728;8.968;2023-05-27T14:26:56;9.03;;;3.50;;
6821;SDS011;3449;48.728;8.968;2023-05-27T14:29:24;13.13;;;4.53;;
6821;SDS011;3449;48.728;8.968;2023-05-27T14:31:51;13.97;;;4.70;;
6821;SDS011;3449;48.728;8.968;2023-05-27T14:34:18;7.00;;;3.50;;
6821;SDS011;3449;48.728;8.968;2023-05-27T14:36:45;11.00;;;5.67;;
6821;SDS011;3449;48.728;8.968;2023-05-27T14:39:12;19.70;;;12.07;;
6821;SDS011;3449;48.728;8.968;2023-05-27T14:41:40;31.87;;;23.60;;
6821;SDS011;3449;48.728;8.968;2023-05-27T14:44:07;29.10;;;19.40;;
6821;SDS011;3449;48.728;8.968;2023-05-27T14:46:35;21.40;;;8.50;;
6821;SDS011;3449;48.728;8.968;2023-05-27T14:49:02;20.07;;;9.33;;
6821;SDS011;3449;48.728;8.968;2023-05-27T14:51:29;9.10;;;4.00;;
6821;SDS011;3449;48.728;8.968;2023-05-27T14:53:55;8.17;;;3.60;;
6821;SDS011;3449;48.728;8.968;2023-05-27T14:56:22;8.33;;;3.70;;
6821;SDS011;3449;48.728;8.968;2023-05-27T14:58:50;6.00;;;3.50;;
6821;SDS011;3449;48.728;8.968;2023-05-27T15:01:17;8.70;;;3.80;;
6821;SDS011;3449;48.728;8.968;2023-05-27T15:03:45;6.07;;;3.27;;
6821;SDS011;3449;48.728;8.968;2023-05-27T15:06:12;13.30;;;4.23;;
6821;SDS011;3449;48.728;8.968;2023-05-27T15:08:39;6.30;;;3.50;;
6821;SDS011;3449;48.728;8.968;2023-05-27T15:11:06;13.73;;;4.07;;